createdAt,value
2022-11-08T00:04:30.931Z,13.60
2022-11-08T00:10:42.964Z,13.60
2022-11-08T00:16:36.584Z,13.60
2022-11-08T00:22:31.729Z,13.60
2022-11-08T00:28:26.486Z,13.80
2022-11-08T00:34:19.937Z,13.60
2022-11-08T00:40:14.078Z,13.70
2022-11-08T00:46:08.768Z,13.70
2022-11-08T00:52:02.051Z,13.70
2022-11-08T00:57:59.490Z,13.80
2022-11-08T01:03:55.287Z,13.80
2022-11-08T01:09:48.104Z,13.80
2022-11-08T01:15:44.624Z,13.70
2022-11-08T01:21:39.782Z,13.70
2022-11-08T01:27:33.131Z,13.60
2022-11-08T01:33:26.492Z,13.70
2022-11-08T01:39:21.117Z,13.80
2022-11-08T01:45:14.411Z,13.80
2022-11-08T01:51:10.440Z,13.80
2022-11-08T01:57:09.510Z,13.70
2022-11-08T02:03:04.144Z,13.60
2022-11-08T02:09:02.243Z,13.70
2022-11-08T02:14:56.906Z,13.60
2022-11-08T02:20:59.803Z,13.60
2022-11-08T02:26:56.563Z,13.60
2022-11-08T02:32:49.827Z,13.50
2022-11-08T02:38:46.252Z,13.50
2022-11-08T02:44:40.896Z,13.40
2022-11-08T02:50:34.465Z,13.50
2022-11-08T02:56:27.917Z,13.50
2022-11-08T03:02:22.767Z,13.40
2022-11-08T03:08:16.661Z,13.40
2022-11-08T03:14:10.507Z,13.20
2022-11-08T03:20:05.793Z,13.20
2022-11-08T03:26:01.616Z,13.20
2022-11-08T03:31:54.891Z,13.20
2022-11-08T03:37:53.646Z,13.10
2022-11-08T03:43:46.986Z,13.10
2022-11-08T03:49:40.293Z,13.00
2022-11-08T03:55:34.840Z,13.00
2022-11-08T04:01:28.261Z,13.00
2022-11-08T04:07:21.647Z,13.00
2022-11-08T04:13:33.680Z,13.20
2022-11-08T04:19:44.839Z,13.10
2022-11-08T04:25:38.168Z,12.80
2022-11-08T04:31:32.870Z,12.80
2022-11-08T04:37:26.214Z,12.60
2022-11-08T04:43:19.553Z,12.70
2022-11-08T04:49:14.250Z,12.70
2022-11-08T04:55:08.281Z,12.60
2022-11-08T05:01:02.945Z,12.50
2022-11-08T05:06:57.814Z,12.50
2022-11-08T05:12:51.091Z,12.50
2022-11-08T05:18:44.949Z,12.50
2022-11-08T05:24:39.684Z,12.40
2022-11-08T05:30:32.606Z,12.60
2022-11-08T05:36:25.900Z,12.70
2022-11-08T05:42:20.529Z,12.60
2022-11-08T05:48:13.865Z,12.60
2022-11-08T05:54:08.397Z,12.30
2022-11-08T06:00:04.433Z,12.20
2022-11-08T06:06:07.220Z,12.30
2022-11-08T06:12:00.668Z,12.10
2022-11-08T06:17:55.567Z,12.00
2022-11-08T06:23:49.341Z,11.90
2022-11-08T06:29:43.294Z,11.80
2022-11-08T06:35:38.160Z,11.90
2022-11-08T06:41:32.638Z,11.90
2022-11-08T06:47:26.009Z,11.80
2022-11-08T06:53:21.505Z,11.70
2022-11-08T06:59:15.204Z,11.60
2022-11-08T07:05:08.956Z,11.60
2022-11-08T07:11:03.539Z,11.60
2022-11-08T07:16:56.906Z,11.70
2022-11-08T07:22:50.282Z,11.70
2022-11-08T07:28:45.101Z,11.70
2022-11-08T07:34:38.507Z,11.70
2022-11-08T07:40:31.617Z,11.70
2022-11-08T07:46:26.451Z,11.70
2022-11-08T07:52:19.767Z,11.60
2022-11-08T07:58:12.686Z,11.70
2022-11-08T08:04:07.496Z,11.90
2022-11-08T08:10:00.856Z,11.90
2022-11-08T08:15:54.162Z,12.00
2022-11-08T08:21:48.833Z,12.10
2022-11-08T08:27:42.383Z,12.10
2022-11-08T08:33:35.326Z,12.20
2022-11-08T08:39:30.027Z,12.40
2022-11-08T08:45:23.039Z,12.30
2022-11-08T08:51:16.455Z,12.60
2022-11-08T08:57:11.260Z,12.60
2022-11-08T09:03:05.342Z,12.60
2022-11-08T09:08:58.682Z,12.80
2022-11-08T09:14:53.345Z,12.80
2022-11-08T09:20:47.832Z,12.90
2022-11-08T09:26:41.177Z,13.10
2022-11-08T09:32:58.997Z,13.30
2022-11-08T09:38:49.795Z,13.30
2022-11-08T09:45:13.375Z,13.50
2022-11-08T09:51:12.732Z,13.60
2022-11-08T09:57:07.231Z,13.70
2022-11-08T10:03:00.603Z,13.80
2022-11-08T10:09:04.437Z,13.90
2022-11-08T10:15:16.213Z,14.00
2022-11-08T10:21:18.511Z,14.00
2022-11-08T10:27:18.236Z,14.00
2022-11-08T10:33:19.081Z,14.10
2022-11-08T10:39:17.480Z,14.20
2022-11-08T10:45:14.130Z,14.30
2022-11-08T10:51:07.603Z,14.40
2022-11-08T10:57:00.924Z,14.60
2022-11-08T11:02:58.034Z,14.80
2022-11-08T11:08:53.185Z,14.80
2022-11-08T11:14:46.627Z,14.90
2022-11-08T11:20:41.386Z,14.90
2022-11-08T11:26:38.798Z,15.00
2022-11-08T11:32:36.243Z,14.90
2022-11-08T11:38:40.245Z,15.00
2022-11-08T11:44:40.415Z,15.00
2022-11-08T11:50:35.613Z,15.20
2022-11-08T11:56:46.140Z,15.30
2022-11-08T12:03:14.674Z,15.40
2022-11-08T12:09:27.995Z,15.50
2022-11-08T12:15:29.846Z,15.50
2022-11-08T12:21:29.139Z,15.40
2022-11-08T12:27:35.144Z,15.40
2022-11-08T12:33:40.982Z,15.40
2022-11-08T12:39:38.772Z,15.40
2022-11-08T12:45:57.619Z,15.40
2022-11-08T12:52:05.428Z,15.40
2022-11-08T12:58:01.997Z,15.30
2022-11-08T13:04:20.359Z,15.30
2022-11-08T13:10:29.187Z,15.20
2022-11-08T13:16:24.485Z,15.20
2022-11-08T13:22:42.775Z,15.20
2022-11-08T13:28:40.486Z,15.20
2022-11-08T13:34:46.680Z,15.10
2022-11-08T13:40:55.690Z,15.10
2022-11-08T13:46:50.845Z,15.20
2022-11-08T13:52:47.959Z,15.20
2022-11-08T13:58:42.924Z,15.30
2022-11-08T14:04:40.408Z,15.30
2022-11-08T14:10:41.028Z,15.30
2022-11-08T14:16:43.244Z,15.30
2022-11-08T14:22:38.001Z,15.20
2022-11-08T14:28:32.621Z,15.20
2022-11-08T14:34:31.604Z,15.20
2022-11-08T14:40:29.168Z,15.10
2022-11-08T14:46:30.345Z,15.10
2022-11-08T14:52:27.775Z,15.10
2022-11-08T14:58:22.619Z,15.00
2022-11-08T15:04:19.186Z,14.90
2022-11-08T15:10:13.158Z,14.90
2022-11-08T15:16:09.612Z,14.90
2022-11-08T15:22:05.348Z,14.80
2022-11-08T15:28:00.250Z,14.80
2022-11-08T15:33:55.299Z,14.80
2022-11-08T15:39:48.695Z,14.70
2022-11-08T15:45:54.291Z,14.70
2022-11-08T15:51:49.468Z,14.70
2022-11-08T15:57:44.995Z,14.70
2022-11-08T16:03:38.362Z,14.70
2022-11-08T16:09:33.112Z,14.70
2022-11-08T16:15:29.085Z,14.70
2022-11-08T16:21:22.386Z,14.60
2022-11-08T16:27:21.486Z,14.60
2022-11-08T16:33:21.815Z,14.60
2022-11-08T16:39:17.301Z,14.60
2022-11-08T16:45:13.425Z,14.50
2022-11-08T16:51:18.121Z,14.50
2022-11-08T16:57:33.730Z,14.50
2022-11-08T17:03:29.919Z,14.50
2022-11-08T17:09:23.340Z,14.50
2022-11-08T17:15:18.135Z,14.50
2022-11-08T17:21:44.122Z,14.50
2022-11-08T17:27:29.171Z,14.50
2022-11-08T17:33:22.766Z,14.50
2022-11-08T17:39:17.603Z,14.50
2022-11-08T17:45:12.428Z,14.50
2022-11-08T17:51:08.374Z,14.40
2022-11-08T17:57:07.679Z,14.50
2022-11-08T18:03:01.364Z,14.40
2022-11-08T18:08:56.346Z,14.40
2022-11-08T18:14:51.093Z,14.50
2022-11-08T18:20:44.423Z,14.40
2022-11-08T18:26:38.004Z,14.40
2022-11-08T18:32:32.679Z,14.40
2022-11-08T18:38:27.197Z,14.50
2022-11-08T18:44:20.651Z,14.40
2022-11-08T18:50:15.946Z,14.50
2022-11-08T18:56:09.559Z,14.40
2022-11-08T19:02:03.623Z,14.30
2022-11-08T19:07:58.398Z,14.30
2022-11-08T19:13:51.780Z,14.30
2022-11-08T19:19:45.518Z,14.30
2022-11-08T19:25:40.153Z,14.30
2022-11-08T19:31:35.069Z,14.40
2022-11-08T19:37:28.604Z,14.40
2022-11-08T19:43:22.858Z,14.30
2022-11-08T19:49:16.174Z,14.30
2022-11-08T19:55:10.289Z,14.40
2022-11-08T20:01:10.219Z,14.30
2022-11-08T20:07:03.559Z,14.30
2022-11-08T20:12:56.994Z,14.30
2022-11-08T20:18:51.996Z,14.30
2022-11-08T20:24:45.416Z,14.30
2022-11-08T20:30:41.769Z,14.30
2022-11-08T20:36:38.048Z,14.30
2022-11-08T20:42:31.496Z,14.20
2022-11-08T20:48:28.553Z,14.20
2022-11-08T20:54:23.421Z,14.20
2022-11-08T21:00:23.986Z,14.20
2022-11-08T21:06:28.620Z,14.30
2022-11-08T21:12:23.476Z,14.20
2022-11-08T21:18:18.624Z,14.20
2022-11-08T21:24:12.342Z,14.10
2022-11-08T21:30:08.243Z,14.10
2022-11-08T21:36:01.143Z,14.10
2022-11-08T21:41:54.529Z,14.10
2022-11-08T21:47:51.884Z,14.10
2022-11-08T21:53:52.765Z,14.10
2022-11-08T21:59:48.373Z,14.10
2022-11-08T22:05:43.007Z,14.10
2022-11-08T22:11:37.392Z,14.10
2022-11-08T22:17:30.890Z,14.00
2022-11-08T22:23:25.529Z,14.10
2022-11-08T22:29:19.559Z,14.10
2022-11-08T22:35:12.855Z,14.10
2022-11-08T22:41:08.315Z,14.00
2022-11-08T22:47:01.623Z,14.00
2022-11-08T22:52:54.446Z,13.80
2022-11-08T22:58:49.286Z,13.80
2022-11-08T23:04:42.580Z,13.80
2022-11-08T23:11:00.826Z,13.90
2022-11-08T23:16:55.452Z,13.80
2022-11-08T23:23:06.209Z,13.80
2022-11-08T23:29:17.068Z,13.80
2022-11-08T23:35:11.925Z,13.80
2022-11-08T23:41:23.166Z,13.70
2022-11-08T23:47:16.437Z,13.70
2022-11-08T23:53:11.279Z,13.80
2022-11-08T23:59:04.869Z,13.70
